VIJP/JAI METAR and TAF weather

Enter ICAO airport designator
Station Type Date Time Source
VIJP METAR 2022/12/08 13:00 UTC NOAA

VIJP 081300Z 00000KT 4000 FU NSC 21/09 Q1016 NOSIG


Station Type Date Time Source
VIJP Decoded METAR 2022/12/08 13:00 UTC NOAA

Jaipur / Sanganer, India (VIJP) 26-49N 075-48E 390M
Dec 08, 2022 - 08:00 AM EST / 2022.12.08 1300 UTC
Wind: Calm:0
Visibility: 2 mile(s):0
Weather: smoke
Temperature: 69 F (21 C)
Dew Point: 48 F (9 C)
Relative Humidity: 46%
Pressure (altimeter): 30.00 in. Hg (1016 hPa)
ob: VIJP 081300Z 00000KT 4000 FU NSC 21/09 Q1016 NOSIG
cycle: 13

Station Type Date Time Source
VIJP TAF 2022/12/08 12:00 UTC NOAA

TAF VIJP 081100Z 0812/0918 VRB02KT 6000 NSC
BECMG 0813/0815 VRB02KT 3000 HZ
BECMG 0902/0904 36004KT 2000 HZ NSC
BECMG 0913/0915 09005KT 3000 HZ

Example: see airport list